Ride Results

Tom Quilty Gold Cup (11-06-2005)
Ride distance: 160.0 km Elevator

Outcomes - Tom Quilty Gold Cup (11-06-2005)
Division No. of Entries Retired / DNE Completed Withdrawn Ineligible V/O Percentage Completed
HW 25 13 0 5 2 5 52.00%
MW 52 32 0 7 - 13 61.54%
LW 38 29 0 2 - 7 76.32%
JN 11 9 0 1 - 1 81.82%
Totals 126 83 - 15 2 26 65.87%
Results - Tom Quilty Gold Cup (11-06-2005)
No. Rider Horse Place Time Leg Speeds Total
Km/Hr
H/R bpm
Heavyweight
26 Peter Toft Electra BBP Murdoch Cancelled 7:49:06 14.2, 13.1, 13.2 13.56 28, 58, 58, 60 (Avg:58)
47 Tony Purton Moonwitch Cancelled 8:06:46 14.6, 12.5, 12.0 13.07 34, 48, 56, 57 (Avg:53)
2 Terry Wood Tallawarra Jazardis Cancelled 8:32:14 13.8, 11.9, 11.4 12.42 44, 50, 48, 52 (Avg:50)
23 Bob Sample Kahu Cancelled 9:24:10 13.1, 9.9, 10.7 11.27 28, 56, 53, 54 (Avg:54)
42 Denise Williams Rothlynne Dark Edition Cancelled 10:00:11 13.3, 10.0, 8.9 10.60 38, 52, 58, 56 (Avg:55)
11 Leanne Le Claire Aloha Kamahl Cancelled 10:09:23 11.4, 10.0, 9.8 10.44 34, 55, 52, 52 (Avg:53)
21 Sandy Horton Darjan Jeesabelle Cancelled 10:41:12 11.0, 10.4, 8.5 9.92 32, 56, 52, 52 (Avg:53)
70 Shimpei Miyamoto Jemma Cancelled 11:47:00 10.4, 8.1, 8.4 9.00 38, 48, 60, 48 (Avg:52)
5 Allan Caslick Highland View Dasha Cancelled 12:54:14 9.6, 7.8, 7.2 8.21 34, 54, 48, 56 (Avg:52)
38 Denis Sugars Highland View Buckby Cancelled 12:55:04 11.1, 7.7, 6.5 8.21 34, 58, 59, 56 (Avg:57)
1 Chris Walker Parlour Mountain Tango Cancelled 13:27:10 11.1, 7.8, 5.9 7.88 39, 41, 48, 44 (Avg:44)
87 Robert Punicki Bazilisk Cancelled 9:19:14 8.2, 6.9 7.62 32, 44, 46 (Avg:45)
119 Ian Sward Camay Cancelled 10:01:17 8.0, 6.0 7.08 33, 44, 40 (Avg:42)
122 Michael Carr Splash Cancelled 4:36:00 15.9, 14.8 15.43 32, 52, 44 (Avg:48)
126 Max Lockhart Glanheathyn Shasha Cancelled 4:45:15 15.4, 14.3 14.93 32, 54, 52 (Avg:53)
78 Tony Matthews Shasalina Shannondoah Cancelled 7:15:00 - 9.79 40, 44, 44 (Avg:44)
73 Tim Matthews Eaton Park Pirate Cancelled 7:16:23 10.8, 8.6 9.76 30, 48, 49 (Avg:48)
A Paul Sward Khozmonaut Cancelled 7:22:00 10.6, 8.6 9.64 42, 58, 56 (Avg:57)
75 Paula Van Eck Kentonvale Shazam Cancelled 7:28:59 11.5, 7.7 9.49 36, 52, 52 (Avg:52)
77 Denise Trollope Churinga Carrishka Cancelled 8:04:30 - 8.79 33, 51, 52 (Avg:51)
79 Ivan Sampson Hillbrae Bam's Boy Cancelled 8:51:05 - 8.02 39, 48, 60 (Avg:54)
74 Geoffrey Jolly Pyrenees Khan Cancelled 8:53:00 8.7, 7.1 7.99 40, 48, 52 (Avg:50)
127 Cecil Lockhart Glanheathyn Arnie Cancelled 2:35:20 - 15.45 32, 44 (Avg:44)
G Greg Henry Bellawongarah Ibn Riaal Cancelled 3:27:26 11.5 11.57 34, 48 (Avg:48)
76 Susan Weiz Redwood Lodge Fire Power Cancelled 4:34:00 - 8.76 40, 48 (Avg:48)
Middleweight
27 Penny Toft Magnum Cancelled 7:49:11 14.1, 11.0, 15.8 13.56 28, 56, 52, 56 (Avg:54)
94 Abdullah Kharmis Ali Saeed Bremervale Justice Cancelled 7:49:46 14.2, 13.8, 12.5 13.54 28, 54, 62, 56 (Avg:57)
6 Jennifer Gilbertson Master Renaut (Ferrymaster at Webbs Creek) Cancelled 7:53:25 13.7, 13.5, 13.0 13.43 32, 48, 57, 52 (Avg:52)
46 Phillip Robertson Pharslee Kaianna Cancelled 8:09:46 14.6, 12.5, 11.8 12.99 34, 52, 54, 56 (Avg:54)
19 Meg Wade Kurrajong Sequel Cancelled 8:27:18 14.5, 13.8, 10.0 12.54 24, 45, 52, 44 (Avg:47)
20 Kristie Taprell Wybalena Lodge Schuska Cancelled 8:32:09 14.0, 11.4, 11.8 12.42 24, 48, 54, 52 (Avg:51)
24 Joyce Corbett Tallawarra Quality Cancelled 8:32:14 13.5, 12.2, 11.4 12.42 36, 50, 54, 52 (Avg:52)
4 Alan Lindsay Castlebar Chandon Cancelled 8:34:24 13.8, 11.3, 11.8 12.36 38, 54, 52, 51 (Avg:52)
57 Gillian Grant Nestlow Sebastian Cancelled 8:46:36 14.0, 13.0, 9.8 12.08 26, 53, 52, 52 (Avg:52)
14 Tracy-Lee Cossor Kelkette Park Durack Cancelled 8:49:25 12.8, 11.7, 11.3 12.01 36, 48, 50, 52 (Avg:50)
10 Raymond Griffiths Alhambra Jazz Dancer Cancelled 8:51:28 13.4, 11.7, 10.7 11.97 30, 56, 52, 58 (Avg:55)
43 Joanne Marshall Elphyn Judiala Cancelled 8:58:10 13.5, 10.8, 11.0 11.82 28, 52, 53, 58 (Avg:54)
32 Donna Brooker Algalahn Cancelled 9:27:25 13.0, 10.2, 10.3 11.21 36, 48, 52, 52 (Avg:50)
12 Renee Kirk Castlebar Tradition Cancelled 9:50:20 12.9, 13.4, 7.8 10.77 32, 48, 52, 52 (Avg:50)
54 Noel Lockhart Mill Park Rhamen Cancelled 9:58:51 12.7, 10.2, 9.1 10.62 40, 49, 48, 48 (Avg:48)
45 Jodi Hutchins Carluke Park Royal Crescent Cancelled 9:59:21 13.3, 10.0, 8.9 10.61 30, 44, 48, 52 (Avg:48)
60 Jenny Keygan Elphyn Phoxx Cancelled 10:09:36 11.3, 10.1, 9.7 10.43 34, 52, 50, 50 (Avg:50)
18 Randy Cowan Blaze Cancelled 10:33:36 10.7, 9.5, 9.7 10.04 27, 44, 48, 52 (Avg:48)
53 Veronica Munro Black Heart Hoss Cancelled 10:47:10 11.7, 9.2, 8.6 9.83 36, 44, 52, 48 (Avg:48)
56 Ossie Owen Mountain Park Allegretto Cancelled 11:03:30 12.2, 9.4, 7.7 9.59 32, 44, 48, 34 (Avg:42)
36 Kimberly Measham Jai Cancelled 11:30:58 11.5, 7.9, 8.4 9.20 28, 57, 60, 58 (Avg:58)
39 Sandra Isenmann Inman Park Nevation Cancelled 11:35:30 10.3, 8.3, 8.7 9.14 36, 45, 52, 58 (Avg:51)
66 Allan Wyllie Highland View McKillop Cancelled 11:42:58 10.6, 8.2, 8.3 9.05 40, 56, 48, 58 (Avg:54)
63 Robyn Nibbs Beer Street Berki Cancelled 11:56:15 9.9, 8.1, 8.5 8.88 30, 46, 42, 48 (Avg:45)
37 Jil Bourton Veloce Mamma Mia Cancelled 11:59:44 11.0, 7.5, 8.1 8.84 44, 58, 56, 54 (Avg:56)
52 Keryn Mahoney Sarisha Cancelled 12:19:58 9.8, 8.0, 7.8 8.59 40, 38, 48, 52 (Avg:46)
3 Rowena Robinson Karumba Nazrani Cancelled 12:20:43 10.8, 7.5, 7.7 8.59 38, 48, 44, 48 (Avg:46)
59 Lynne Campbell Little Fleur Cancelled 12:20:47 9.8, 8.1, 7.8 8.59 26, 48, 48, 46 (Avg:47)
95 Mark Tylee Roheryn Bold Impression Cancelled 12:42:11 9.7, 7.9, 7.4 8.34 33, 49, 52, 48 (Avg:49)
16 Sue Parsons Karumba Quixote Cancelled 12:46:13 9.5, 7.6, 7.7 8.30 36, 48, 52, 48 (Avg:49)
22 Barry Sinclair Chipawood Micah Cancelled 13:17:36 11.4, 7.3, 6.2 7.97 36, 48, 48, 52 (Avg:49)
103 Mark Harvey Judstan Sharwayn Cancelled 8:17:29 14.4, 12.0, 11.8 12.78 38, 54, 58, 59 (Avg:57)
100 Janine Parr Madame Pandora Cancelled 9:13:55 12.3, 12.0, 10.2 11.48 36, 52, 56, 52 (Avg:53)
96 Jaimee Foulsham Blue Bronco Cancelled 9:28:00 13.0, 10.1, 10.4 11.20 32, 51, 51, 58 (Avg:53)
S Bonny Burgess D'Orsaz Cancelled 10:20:50 11.4, 9.9, 9.3 10.24 32, 60, 56, 53 (Avg:56)
125 Tony Standfield Stanpark Raymond Cancelled 11:00:26 10.3, 9.6, 8.8 9.63 40, 52, 59, 59 (Avg:56)
102 Hans Peuker Marybank Marcus Cancelled 11:17:36 10.9, 8.8, 8.4 9.39 34, 45, 51, 56 (Avg:50)
104 Helen Bowkett Jordanvale Snowbird Cancelled 11:30:23 10.7, 8.6, 8.3 9.21 32, 52, 48, 50 (Avg:50)
124 Tami Parnell Tallawarra Jalibur Cancelled 12:41:00 10.0, 8.3, 6.9 8.36 40, 58, 50, 48 (Avg:52)
99 Josette Hussey Aloha Fasaha Cancelled 10:09:33 8.2, 5.8 6.99 36, 44, 56 (Avg:50)
114 Roy Counsell Delraki Temujin Cancelled 5:28:41 13.8, 11.9 12.96 40, 56, 51 (Avg:53)
101 Beverley Rayner-Mason Karumba Nariel Cancelled 5:40:46 13.7, 11.2 12.50 44, 48, 58 (Avg:53)
117 Tania Drever Murrawonda Nina Simone Cancelled 5:48:16 - 12.23 32, 56, 60 (Avg:58)
107 Sue Docherty Free Spirit Lightning Ridge Cancelled 8:05:05 - 8.78 36, 50, 58 (Avg:54)
113 Tania Jago Rivergum Bounty Cancelled 8:24:06 - 8.45 48, 56, 53 (Avg:54)
105 Cathy Preston Davequ Cancelled 9:06:41 - 7.79 38, 44, 50 (Avg:47)
C Peter Treleor Momtaz Mancini Cancelled 2:28:39 16.1 16.15 32, 60 (Avg:60)
98 Yousef Ahmed Al Bloushi Tora Blar-Zay Cancelled 2:42:21 14.7 14.78 28, 54 (Avg:54)
97 Louis Botha BJ Beraq Cancelled 3:23:30 11.7 11.79 40, 89 (Avg:89)
108 Rhiannon Groth Divine Jester Cancelled 3:40:37 - 10.88 42, 48 (Avg:48)
109 Audrey Gardam Elphyn Flame Cancelled 4:07:48 - 9.69 32, 52 (Avg:52)
106 Royce Martin Splinter Cancelled 4:31:30 - 8.84 32, 50 (Avg:50)
Lightweight
33 Jeremy Robertson Jen-A-Dale Zamara Cancelled 7:59:52 13.7, 13.1, 12.8 13.25 34, 52, 59, 60 (Avg:57)
115 Linda Meredith Willow Creek Petite Cancelled 8:10:55 13.6, 12.3, 12.7 12.96 32, 52, 58, 56 (Avg:55)
25 Melissa Longhurst Pharslee Amani Cancelled 8:12:35 13.5, 13.4, 11.8 12.91 30, 56, 56, 56 (Avg:56)
28 Sue Sutcliffe Champion Lad Cancelled 8:17:29 13.7, 12.9, 11.6 12.78 27, 52, 56, 52 (Avg:53)
34 Amily Le Chaswyk Flamboyance Cancelled 8:36:17 13.8, 11.4, 11.6 12.32 32, 58, 52, 59 (Avg:56)
49 Anita Hutchins Eaton Park Passion Cancelled 8:58:18 13.5, 10.8, 11.0 11.81 36, 48, 58, 48 (Avg:51)
50 Kathryn Scammell William Bonney Cancelled 9:11:16 11.6, 11.5, 11.4 11.54 40, 56, 52, 54 (Avg:54)
29 Wencke Hansen Bramall Jazzmin Cancelled 9:24:04 13.9, 9.3, 10.8 11.28 32, 56, 56, 54 (Avg:55)
41 Cheryl Bullock Chip Chase Knight Cancelled 9:34:08 13.5, 10.6, 9.3 11.08 28, 46, 54, 56 (Avg:52)
116 Kiyoshi Ozawa Aloha Juror Cancelled 9:53:54 12.9, 10.4, 9.1 10.71 36, 56, 54, 52 (Avg:54)
64 Alison Lockhart Lockleigh Park Misty Rose Cancelled 10:07:50 12.7, 10.2, 8.8 10.46 34, 48, 52, 42 (Avg:47)
55 Krystel Reid Storm Cancelled 10:08:42 12.7, 10.3, 8.7 10.45 38, 54, 58, 58 (Avg:56)
68 Deborah Cole Bar K Beni Cancelled 10:09:00 11.8, 9.6, 9.8 10.44 28, 51, 48, 58 (Avg:52)
30 Chloe Lyons Stanpark Strike Cancelled 10:20:00 10.7, 9.7, 10.1 10.26 36, 56, 52, 48 (Avg:52)
72 Sonia Hodgetts Elphyn Prince Cancelled 10:24:50 12.2, 8.7, 9.6 10.18 48, 52, 57, 60 (Avg:56)
17 Sally Cowan Sobah Cancelled 10:33:00 10.7, 9.5, 9.7 10.05 36, 42, 48, 53 (Avg:47)
71 Jessica Bramich Kurrajong Zephyr Cancelled 11:24:33 12.8, 8.9, 7.2 9.29 36, 54, 52, 50 (Avg:52)
65 Jen Clingly Imaj Zamir Cancelled 11:26:11 12.8, 9.0, 7.1 9.27 38, 48, 52, 50 (Avg:50)
58 Lisa jane Kent Duloe Kush Cancelled 11:44:53 9.0, 8.2, 9.7 9.02 38, 48, 52, 56 (Avg:52)
61 Fumie Kameyama Highland View Fly Cancelled 11:47:41 10.1, 8.4, 8.3 8.99 33, 40, 52, 48 (Avg:46)
67 Noriko Endo Highland View Little Jimmy Spooker Cancelled 11:47:49 10.1, 8.4, 8.4 8.99 32, 40, 52, 58 (Avg:50)
48 Ann Richards Middleton's Rousabout Cancelled 12:20:00 9.8, 8.0, 7.8 8.59 29, 42, 52, 44 (Avg:46)
7 Jennifer Johansen Tallawarra Chance Cancelled 12:40:54 10.1, 8.2, 7.0 8.36 34, 48, 42, 48 (Avg:46)
9 Roz Edmunds Hillbrae Gem Cancelled 12:43:12 8.5, 7.4, 9.0 8.33 40, 44, 43, 50 (Avg:45)
89 Diana Carroll She's A Pearl Cancelled 11:14:00 10.6, 9.0, 8.6 9.44 41, 54, 59, 56 (Avg:56)
80 Jill Lowth Lauralyn Shazala Cancelled 7:20:53 11.1, 8.2 9.66 34, 60, 60 (Avg:60)
84 Emiko Inoue Dunwingeri Baraak Cancelled 7:37:14 9.9, 8.6 9.32 32, 46, 53 (Avg:49)
81 Helen Spencer Kanada Cancelled 8:56:00 8.7, 7.0 7.95 36, 44, 42 (Avg:43)
83 Chloe Morris Zara Farm Shoman Cancelled 9:19:11 8.2, 6.9 7.62 28, 44, 44 (Avg:44)
120 Narelle Sward Pallano Kisha Cancelled 10:01:17 8.0, 6.0 7.08 34, 44, 48 (Avg:46)
86 Kristie Sheehan Lauralyn Georg Cancelled 5:37:00 13.1, 12.0 12.64 30, 52, 50 (Avg:51)
110 Tracy Nutting Shemali Mikalaa Cancelled 6:34:12 12.0, 9.5 10.81 40, 48, 48 (Avg:48)
111 Megan Brown Alba 2 Tone Cowboy Cancelled 8:05:00 9.1, 8.3 8.78 38, 40, 52 (Avg:46)
82 Jane Stratton Prince Rillian Cancelled 8:13:25 - 8.63 40, 44, 51 (Avg:47)
85 Angela Hawks Elphyn Shuvara Cancelled 3:03:00 13.1 13.11 40, 52 (Avg:52)
88 Rachel Kuns Kelkette Park Doriemus Cancelled 3:20:28 11.9 11.97 38, 78 (Avg:78)
112 Toni Sheehan Nabowla Nook Nite Cancelled 3:38:20 10.9 10.99 32, 46 (Avg:46)
90 Aleesha Martin Tierview Shadow Chaser Cancelled 4:31:20 - 8.85 44, 50 (Avg:50)
Junior
8 Brooke Warner Tora August Cancelled 7:49:00 13.9, 13.2, 13.4 13.56 32, 52, 52, 58 (Avg:54)
51 Jacob Burke Piabun Ellalong Cancelled 10:07:19 11.6, 9.4, 10.2 10.47 36, 52, 56, 57 (Avg:55)
40 Jessica Aistrope Sheridan Park Kariim Cancelled 10:07:48 11.4, 9.5, 10.2 10.46 48, 52, 50, 58 (Avg:53)
13 Jamie Mollema Billywillinga Rocky Cancelled 11:05:29 10.8, 8.1, 9.7 9.56 38, 44, 44, 52 (Avg:46)
69 Emma Ebbelaar Pippa Cancelled 11:31:10 10.5, 8.6, 8.4 9.20 38, 44, 52, 48 (Avg:48)
31 Rhys Rayner Stanpark Mystery Cancelled 11:33:27 11.5, 7.0, 9.4 9.17 34, 48, 52, 56 (Avg:52)
62 Sabrina Docherty Lauralyn Mishad Cancelled 11:48:52 9.6, 7.8, 9.3 8.97 34, 44, 48, 52 (Avg:48)
91 Danni Van Eck Avondale Mighty Smart Cancelled 11:53:54 11.5, 7.0, 8.7 8.91 38, 44, 46, 58 (Avg:49)
15 Rhiannon Tweedie Judeesia Bandman Cancelled 12:20:15 10.8, 7.5, 7.7 8.59 40, 48, 48, 54 (Avg:50)
92 Stuart Becker Shamaya Cancelled 7:47:47 10.1, 8.0 9.11 36, 46, 60 (Avg:53)
93 Dimity Schofield Chattain Cancelled 8:06:24 - 8.76 40, 48, 48 (Avg:48)